Osceola, IA

2:15 AM CDT on July 27, 2016 (GMT -0500)
Osceola Municipal

Weather History for KI75 - March, 2013

Change the Weather History Date:

Monday, March 11, 2013

  Actual Average (KLWD) Record (KLWD)
Temperature  
Mean Temperature 26 °F 38 °F  
Max Temperature 29 °F 48 °F 80 °F (1972)
Min Temperature 23 °F 28 °F 6 °F (1969)
Degree Days  
Heating Degree Days 39 27  
Month to date heating degree days 323  
Since 1 July heating degree days 5040  
Cooling Degree Days 0 0  
Month to date cooling degree days 0  
Year to date cooling degree days 0  
Moisture  
Dew Point 23 °F    
Average Humidity 85    
Maximum Humidity 92    
Minimum Humidity 75    
Precipitation  
Precipitation 0.00 in 0.06 in 1.35 in (1976)
Month to date precipitation 0.66  
Sea Level Pressure  
Sea Level Pressure 29.82 in    
Wind  
Wind Speed 15 mph (WNW)    
Max Wind Speed 20 mph    
Max Gust Speed 24 mph    
Visibility 8 miles    
Events Snow    
T = Trace of Precipitation, MM = Missing Value Source: NWS Daily Summary

Daily Weather History Graph

Daily Weather History Graph

Search for Another Location

Airport or City:

Trip Planner

Search our weather history database for the weather conditions in past years. The results will help you decide how hot, cold, wet, or windy it might be!

Date:

Astronomy

Mar. 11, 2013 Rise Set
Actual Time 7:32 AM CDT 7:17 PM CDT
Civil Twilight 7:05 AM CDT 7:44 PM CDT
Nautical Twilight 6:33 AM CDT 8:16 PM CDT
Astronomical Twilight 6:01 AM CDT 8:48 PM CDT
Moon 7:06 AM CDT (3/11) 7:30 PM CDT (3/11)
Length of Visible Light 12h 39m
Length of Day
11h 44m
Waning Crescent, 0% of the Moon is Illuminated
Mar 11
Waning Crescent
Mar 11
New
Mar 19
First Quarter
Mar 27
Full
Apr 2
Last Quarter

Hourly Weather History & Observations

Time (CDT) Temp. Windchill Dew Point Humidity Pressure Visibility Wind Dir Wind Speed Gust Speed Precip Events Conditions
12:15 AM 29.8 °F 17.7 °F 27.9 °F 92% 29.74 in 7.0 mi NW 18.4 mph 24.2 mph N/A   Overcast
12:35 AM 29.7 °F 18.2 °F 27.5 °F 92% 29.74 in 7.0 mi NW 16.1 mph 24.2 mph N/A   Overcast
12:55 AM 29.3 °F 17.7 °F 27.1 °F 92% 29.74 in 7.0 mi WNW 16.1 mph - N/A   Overcast
1:15 AM 28.8 °F 17.0 °F 26.4 °F 91% 29.75 in 7.0 mi WNW 16.1 mph 24.2 mph N/A   Overcast
1:35 AM 28.4 °F 16.6 °F 26.1 °F 91% 29.74 in 7.0 mi NW 16.1 mph 21.9 mph N/A   Overcast
1:55 AM 28.0 °F 16.1 °F 25.7 °F 91% 29.74 in 7.0 mi WNW 16.1 mph - N/A   Overcast
2:15 AM 28.0 °F 16.5 °F 25.7 °F 91% 29.74 in 7.0 mi WNW 15.0 mph 18.4 mph N/A   Overcast
2:35 AM 28.0 °F 16.5 °F 25.7 °F 91% 29.74 in 7.0 mi NW 15.0 mph - N/A   Overcast
2:55 AM 28.0 °F 16.1 °F 25.7 °F 91% 29.74 in 7.0 mi NW 16.1 mph - N/A   Overcast
3:15 AM 27.9 °F 16.8 °F 25.3 °F 90% 29.74 in 7.0 mi NW 13.8 mph 24.2 mph N/A   Overcast
3:35 AM 27.5 °F 15.9 °F 25.3 °F 92% 29.73 in 7.0 mi NW 15.0 mph 20.7 mph N/A   Overcast
3:55 AM 27.3 °F 16.1 °F 24.8 °F 90% 29.72 in 7.0 mi NW 13.8 mph 23.0 mph N/A   Overcast
4:15 AM 27.1 °F 15.9 °F 24.4 °F 90% 29.72 in 10.0 mi NW 13.8 mph 21.9 mph N/A   Overcast
4:35 AM 26.6 °F 14.7 °F 24.4 °F 92% 29.72 in 5.0 mi NW 15.0 mph 23.0 mph N/A   Overcast
4:55 AM 26.4 °F 13.2 °F 23.9 °F 90% 29.72 in 5.0 mi NW 18.4 mph - N/A Snow Light Snow
5:15 AM 26.4 °F 14.5 °F 23.9 °F 90% 29.72 in 7.0 mi NW 15.0 mph 19.6 mph N/A Snow Light Snow
5:35 AM 26.2 °F 14.2 °F 23.5 °F 90% 29.73 in 10.0 mi WNW 15.0 mph 21.9 mph N/A   Overcast
5:55 AM 25.9 °F 14.3 °F 23.4 °F 90% 29.74 in 7.0 mi WNW 13.8 mph - N/A   Overcast
6:15 AM 25.7 °F 13.5 °F 23.0 °F 89% 29.74 in 7.0 mi WNW 15.0 mph 19.6 mph N/A   Overcast
6:35 AM 25.7 °F 13.5 °F 23.0 °F 89% 29.75 in 7.0 mi NW 15.0 mph 20.7 mph N/A   Overcast
6:55 AM 25.7 °F 14.6 °F 23.0 °F 89% 29.75 in 7.0 mi NW 12.7 mph 19.6 mph N/A   Overcast
7:15 AM 25.7 °F 13.1 °F 23.0 °F 89% 29.76 in 7.0 mi NW 16.1 mph - N/A   Overcast
7:35 AM 25.3 °F 12.6 °F 22.5 °F 89% 29.77 in 10.0 mi WNW 16.1 mph - N/A   Overcast
7:55 AM 25.3 °F 13.1 °F 22.3 °F 88% 29.78 in 10.0 mi WNW 15.0 mph 21.9 mph N/A   Overcast
8:15 AM 25.3 °F 13.1 °F 22.5 °F 89% 29.78 in 4.0 mi WNW 15.0 mph 19.6 mph N/A   Overcast
8:35 AM 25.5 °F 14.3 °F 22.1 °F 87% 29.79 in 7.0 mi NW 12.7 mph 20.7 mph N/A   Overcast
8:55 AM 25.3 °F 12.6 °F 22.1 °F 87% 29.79 in 7.0 mi NW 16.1 mph - N/A   Overcast
9:15 AM 25.7 °F 13.5 °F 22.6 °F 88% 29.79 in 7.0 mi WNW 15.0 mph - N/A   Overcast
9:35 AM 25.9 °F 13.8 °F 23.0 °F 89% 29.79 in 5.0 mi WNW 15.0 mph - N/A Snow Light Snow
9:55 AM 26.2 °F 13.4 °F 23.0 °F 88% 29.79 in 5.0 mi WNW 17.3 mph 23.0 mph N/A Snow Light Snow
10:15 AM 26.6 °F 15.2 °F 23.5 °F 88% 29.79 in 7.0 mi WNW 13.8 mph 19.6 mph N/A   Overcast
10:35 AM 26.4 °F 13.6 °F 23.0 °F 87% 29.79 in 7.0 mi NW 17.3 mph - N/A   Overcast
10:55 AM 26.6 °F 14.3 °F 23.2 °F 87% 29.79 in 7.0 mi WNW 16.1 mph 23.0 mph N/A   Overcast
11:15 AM 27.0 °F 15.2 °F 23.4 °F 86% 29.80 in 10.0 mi WNW 15.0 mph - N/A   Overcast
11:35 AM 27.1 °F 14.1 °F 23.5 °F 86% 29.81 in 7.0 mi WNW 18.4 mph 24.2 mph N/A   Overcast
11:55 AM 27.0 °F 13.5 °F 23.5 °F 87% 29.81 in 7.0 mi WNW 19.6 mph 23.0 mph N/A   Overcast
12:15 PM 27.0 °F 16.1 °F 23.5 °F 87% 29.82 in 7.0 mi WNW 12.7 mph - N/A   Overcast
12:35 PM 26.8 °F 14.1 °F 23.2 °F 86% 29.82 in 7.0 mi WNW 17.3 mph 21.9 mph N/A   Overcast
12:55 PM 27.0 °F 16.1 °F 23.2 °F 86% 29.82 in 7.0 mi WNW 12.7 mph 23.0 mph N/A   Overcast
1:15 PM 27.3 °F 15.2 °F 23.4 °F 85% 29.82 in 10.0 mi West 16.1 mph - N/A   Overcast
1:35 PM 27.1 °F 14.5 °F 23.0 °F 84% 29.82 in 7.0 mi WNW 17.3 mph - N/A   Overcast
1:55 PM 27.5 °F 15.9 °F 23.4 °F 84% 29.82 in 7.0 mi WNW 15.0 mph 20.7 mph N/A   Overcast
2:15 PM 27.7 °F 16.6 °F 23.5 °F 84% 29.83 in 7.0 mi West 13.8 mph 21.9 mph N/A   Overcast
2:35 PM 28.0 °F 16.5 °F 23.4 °F 83% 29.83 in 10.0 mi West 15.0 mph 20.7 mph N/A   Overcast
2:55 PM 27.7 °F 15.6 °F 22.8 °F 82% 29.82 in 7.0 mi West 16.1 mph - N/A   Overcast
3:15 PM 28.2 °F 16.8 °F 22.8 °F 80% 29.82 in 10.0 mi WNW 15.0 mph - N/A   Overcast
3:55 PM 28.2 °F 18.3 °F 23.0 °F 81% 29.83 in 7.0 mi West 11.5 mph - N/A   Overcast
4:15 PM 28.8 °F 18.4 °F 23.0 °F 79% 29.82 in 10.0 mi West 12.7 mph 18.4 mph N/A   Overcast
4:35 PM 28.4 °F 17.0 °F 22.3 °F 78% 29.83 in 10.0 mi West 15.0 mph - N/A   Overcast
4:55 PM 28.0 °F 15.7 °F 21.6 °F 77% 29.84 in 10.0 mi West 17.3 mph - N/A   Overcast
5:15 PM 27.3 °F 15.6 °F 21.2 °F 78% 29.85 in 10.0 mi West 15.0 mph - N/A   Overcast
5:35 PM 27.0 °F 14.3 °F 20.1 °F 75% 29.85 in 10.0 mi WNW 17.3 mph - N/A   Overcast
5:55 PM 26.8 °F 14.1 °F 19.8 °F 75% 29.86 in 7.0 mi West 17.3 mph 21.9 mph N/A   Overcast
6:15 PM 26.6 °F 14.3 °F 19.9 °F 76% 29.86 in 7.0 mi WNW 16.1 mph - N/A   Mostly Cloudy
6:35 PM 26.4 °F 15.0 °F 19.9 °F 77% 29.87 in 10.0 mi WNW 13.8 mph 18.4 mph N/A   Mostly Cloudy
6:55 PM 26.1 °F 16.2 °F 19.6 °F 76% 29.88 in 10.0 mi NW 10.4 mph - N/A   Mostly Cloudy
7:15 PM 24.8 °F 15.3 °F 19.0 °F 79% 29.89 in 10.0 mi WNW 9.2 mph - N/A   Scattered Clouds
7:35 PM 24.3 °F 14.6 °F 18.9 °F 80% 29.90 in 10.0 mi West 9.2 mph - N/A   Scattered Clouds
7:55 PM 23.7 °F 14.7 °F 18.9 °F 82% 29.91 in 10.0 mi WNW 8.1 mph - N/A   Scattered Clouds
8:15 PM 23.9 °F 13.5 °F 18.5 °F 80% 29.92 in 10.0 mi WNW 10.4 mph - N/A   Clear
8:35 PM 23.9 °F 15.8 °F 19.0 °F 82% 29.93 in 10.0 mi West 6.9 mph - N/A   Scattered Clouds
8:55 PM 24.8 °F 16.1 °F 19.8 °F 81% 29.92 in 10.0 mi West 8.1 mph - N/A   Overcast
9:15 PM 24.8 °F 16.9 °F 19.8 °F 81% 29.92 in 10.0 mi West 6.9 mph - N/A   Overcast
9:35 PM 25.3 °F 17.6 °F 20.5 °F 82% 29.91 in 10.0 mi West 6.9 mph - N/A   Overcast
9:55 PM 25.7 °F 16.4 °F 20.8 °F 82% 29.93 in 10.0 mi West 9.2 mph - N/A   Overcast
10:15 PM 24.8 °F 16.9 °F 20.3 °F 83% 29.93 in 10.0 mi West 6.9 mph - N/A   Scattered Clouds
10:35 PM 24.1 °F 16.0 °F 20.1 °F 85% 29.94 in 10.0 mi West 6.9 mph - N/A   Scattered Clouds
10:55 PM 25.2 °F 16.5 °F 21.0 °F 84% 29.95 in 10.0 mi West 8.1 mph - N/A   Mostly Cloudy
11:15 PM 24.8 °F 16.9 °F 20.3 °F 83% 29.95 in 10.0 mi West 6.9 mph - N/A   Mostly Cloudy
11:35 PM 24.3 °F 16.3 °F 19.9 °F 84% 29.94 in 10.0 mi West 6.9 mph - N/A   Scattered Clouds
11:55 PM 23.7 °F 14.7 °F 19.4 °F 84% 29.95 in 10.0 mi West 8.1 mph - N/A   Clear